createdAt,value
2023-01-18T00:00:34.410Z,5.07
2023-01-18T00:03:02.510Z,4.20
2023-01-18T00:05:30.482Z,4.97
2023-01-18T00:07:59.838Z,4.43
2023-01-18T00:10:27.946Z,5.28
2023-01-18T00:12:56.531Z,4.20
2023-01-18T00:15:24.708Z,4.47
2023-01-18T00:17:52.684Z,5.65
2023-01-18T00:20:22.853Z,3.72
2023-01-18T00:22:51.223Z,4.45
2023-01-18T00:25:22.463Z,4.32
2023-01-18T00:27:52.321Z,3.55
2023-01-18T00:30:22.232Z,4.85
2023-01-18T00:32:51.123Z,4.65
2023-01-18T00:35:22.041Z,3.40
2023-01-18T00:37:51.612Z,4.00
2023-01-18T00:40:22.196Z,4.38
2023-01-18T00:43:04.245Z,4.32
2023-01-18T00:45:32.305Z,3.03
2023-01-18T00:48:00.246Z,4.55
2023-01-18T00:50:28.377Z,3.03
2023-01-18T00:53:00.013Z,3.33
2023-01-18T00:55:29.724Z,2.65
2023-01-18T00:57:57.723Z,2.83
2023-01-18T01:00:27.057Z,3.22
2023-01-18T01:02:56.030Z,2.47
2023-01-18T01:05:44.136Z,3.25
2023-01-18T01:08:17.544Z,2.72
2023-01-18T01:10:48.507Z,4.45
2023-01-18T01:13:36.204Z,2.83
2023-01-18T01:16:24.711Z,3.55
2023-01-18T01:19:11.119Z,3.45
2023-01-18T01:21:56.712Z,2.63
2023-01-18T01:24:42.528Z,2.63
2023-01-18T01:27:12.511Z,2.03
2023-01-18T01:29:40.534Z,1.85
2023-01-18T01:32:08.697Z,1.80
2023-01-18T01:34:37.072Z,1.83
2023-01-18T01:37:05.756Z,1.42
2023-01-18T01:39:33.674Z,1.55
2023-01-18T01:42:01.672Z,1.92
2023-01-18T01:44:50.082Z,1.45
2023-01-18T01:47:29.221Z,1.83
2023-01-18T01:50:01.754Z,2.95
2023-01-18T01:52:33.843Z,1.70
2023-01-18T01:55:05.845Z,1.40
2023-01-18T01:57:38.075Z,1.48
2023-01-18T02:00:10.492Z,2.00
2023-01-18T02:02:43.647Z,2.00
2023-01-18T02:05:14.875Z,1.08
2023-01-18T02:07:42.913Z,1.35
2023-01-18T02:10:12.171Z,1.33
2023-01-18T02:12:42.033Z,0.88
2023-01-18T02:15:12.790Z,1.17
2023-01-18T02:18:00.859Z,1.30
2023-01-18T02:20:58.589Z,1.23
2023-01-18T02:23:36.073Z,1.52
2023-01-18T02:26:34.391Z,1.05
2023-01-18T02:29:14.389Z,0.75
2023-01-18T02:31:53.710Z,2.22
2023-01-18T02:34:31.342Z,0.47
2023-01-18T02:37:06.974Z,1.67
2023-01-18T02:39:42.109Z,0.95
2023-01-18T02:42:35.940Z,0.57
2023-01-18T02:45:25.937Z,0.70
2023-01-18T02:47:55.720Z,0.85
2023-01-18T02:50:26.814Z,0.47
2023-01-18T02:52:55.472Z,0.40
2023-01-18T02:55:32.601Z,0.50
2023-01-18T02:58:05.817Z,1.33
2023-01-18T03:00:39.169Z,1.52
2023-01-18T03:03:08.278Z,0.60
2023-01-18T03:05:37.527Z,0.50
2023-01-18T03:08:10.996Z,0.40
2023-01-18T03:10:50.906Z,0.30
2023-01-18T03:13:28.878Z,1.75
2023-01-18T03:16:06.572Z,0.30
2023-01-18T03:19:00.180Z,0.52
2023-01-18T03:21:37.690Z,0.30
2023-01-18T03:24:08.066Z,1.08
2023-01-18T03:26:41.322Z,0.32
2023-01-18T03:29:27.942Z,0.40
2023-01-18T03:32:20.007Z,1.35
2023-01-18T03:34:54.141Z,0.30
2023-01-18T03:37:28.046Z,0.40
2023-01-18T03:40:00.544Z,0.60
2023-01-18T03:42:35.724Z,0.32
2023-01-18T03:45:09.765Z,0.40
2023-01-18T03:47:39.705Z,0.47
2023-01-18T03:50:08.303Z,0.57
2023-01-18T03:52:42.525Z,0.47
2023-01-18T03:55:16.767Z,0.32
2023-01-18T03:57:50.310Z,0.47
2023-01-18T04:00:19.419Z,0.55
2023-01-18T04:02:50.462Z,0.82
2023-01-18T04:05:19.347Z,0.60
2023-01-18T04:07:47.314Z,0.30
2023-01-18T04:10:16.203Z,0.47
2023-01-18T04:12:44.222Z,0.28
2023-01-18T04:15:12.801Z,0.30
2023-01-18T04:17:40.885Z,1.05
2023-01-18T04:20:11.789Z,0.88
2023-01-18T04:22:39.797Z,0.60
2023-01-18T04:25:08.331Z,0.22
2023-01-18T04:27:36.304Z,0.38
2023-01-18T04:30:06.299Z,0.52
2023-01-18T04:32:34.674Z,0.43
2023-01-18T04:35:02.649Z,0.40
2023-01-18T04:37:34.234Z,0.22
2023-01-18T04:40:02.268Z,0.82
2023-01-18T04:42:30.528Z,0.90
2023-01-18T04:44:58.637Z,1.50
2023-01-18T04:47:28.968Z,0.82
2023-01-18T04:49:57.416Z,2.08
2023-01-18T04:52:26.859Z,0.95
2023-01-18T04:54:56.398Z,0.30
2023-01-18T04:57:24.441Z,0.55
2023-01-18T04:59:52.391Z,0.82
2023-01-18T05:02:20.599Z,0.70
2023-01-18T05:04:48.502Z,1.00
2023-01-18T05:07:17.393Z,1.13
2023-01-18T05:09:45.396Z,2.60
2023-01-18T05:12:14.811Z,0.45
2023-01-18T05:14:42.768Z,0.80
2023-01-18T05:17:10.802Z,0.47
2023-01-18T05:19:40.468Z,0.77
2023-01-18T05:22:08.570Z,0.60
2023-01-18T05:24:36.614Z,0.57
2023-01-18T05:27:04.773Z,0.98
2023-01-18T05:29:34.094Z,1.65
2023-01-18T05:32:02.001Z,1.08
2023-01-18T05:34:30.077Z,1.20
2023-01-18T05:36:58.825Z,2.33
2023-01-18T05:39:26.873Z,3.63
2023-01-18T05:41:54.828Z,0.60
2023-01-18T05:44:22.788Z,1.25
2023-01-18T05:46:52.165Z,1.05
2023-01-18T05:49:20.088Z,1.45
2023-01-18T05:51:47.984Z,0.30
2023-01-18T05:54:15.898Z,0.70
2023-01-18T05:56:44.076Z,0.68
2023-01-18T05:59:13.949Z,1.20
2023-01-18T06:01:41.891Z,0.90
2023-01-18T06:04:11.355Z,2.72
2023-01-18T06:06:39.282Z,1.08
2023-01-18T06:09:07.301Z,1.58
2023-01-18T06:11:35.325Z,0.50
2023-01-18T06:14:03.260Z,1.17
2023-01-18T06:16:31.247Z,0.40
2023-01-18T06:18:59.217Z,1.48
2023-01-18T06:21:28.585Z,0.73
2023-01-18T06:23:56.633Z,1.85
2023-01-18T06:26:24.634Z,1.38
2023-01-18T06:28:52.519Z,1.02
2023-01-18T06:31:20.475Z,1.00
2023-01-18T06:33:48.682Z,0.70
2023-01-18T06:36:16.892Z,0.30
2023-01-18T06:38:46.313Z,1.20
2023-01-18T06:41:15.970Z,0.90
2023-01-18T06:43:43.936Z,0.45
2023-01-18T06:46:11.891Z,1.38
2023-01-18T06:48:40.018Z,0.60
2023-01-18T06:51:07.944Z,1.02
2023-01-18T06:53:37.901Z,0.77
2023-01-18T06:56:10.417Z,0.57
2023-01-18T06:58:38.526Z,0.85
2023-01-18T07:01:06.967Z,0.43
2023-01-18T07:03:35.330Z,0.80
2023-01-18T07:06:05.885Z,1.95
2023-01-18T07:08:34.333Z,0.85
2023-01-18T07:11:08.273Z,0.90
2023-01-18T07:13:39.924Z,1.95
2023-01-18T07:16:09.473Z,0.75
2023-01-18T07:18:37.418Z,0.60
2023-01-18T07:21:08.148Z,2.28
2023-01-18T07:23:37.270Z,1.40
2023-01-18T07:26:08.403Z,1.00
2023-01-18T07:28:37.005Z,0.93
2023-01-18T07:31:08.010Z,0.70
2023-01-18T07:33:36.753Z,1.65
2023-01-18T07:36:07.436Z,3.13
2023-01-18T07:38:35.597Z,0.55
2023-01-18T07:41:05.289Z,1.98
2023-01-18T07:43:35.185Z,0.93
2023-01-18T07:46:04.158Z,3.13
2023-01-18T07:48:32.728Z,0.85
2023-01-18T07:51:02.972Z,1.88
2023-01-18T07:53:32.237Z,1.30
2023-01-18T07:56:01.747Z,2.25
2023-01-18T07:58:30.241Z,3.22
2023-01-18T08:01:04.886Z,4.55
2023-01-18T08:03:33.180Z,3.15
2023-01-18T08:06:01.958Z,2.97
2023-01-18T08:08:30.551Z,1.45
2023-01-18T08:10:59.711Z,1.70
2023-01-18T08:13:28.601Z,4.00
2023-01-18T08:15:57.471Z,4.05
2023-01-18T08:18:27.086Z,2.30
2023-01-18T08:20:55.280Z,3.58
2023-01-18T08:23:23.670Z,5.05
2023-01-18T08:25:52.252Z,9.98
2023-01-18T08:28:20.643Z,7.00
2023-01-18T08:30:49.598Z,4.00
2023-01-18T08:33:17.631Z,1.75
2023-01-18T08:35:48.770Z,4.68
2023-01-18T08:38:17.923Z,4.22
2023-01-18T08:40:47.245Z,3.83
2023-01-18T08:43:15.219Z,4.07
2023-01-18T08:45:43.182Z,2.80
2023-01-18T08:48:12.421Z,1.67
2023-01-18T08:50:40.374Z,2.80
2023-01-18T08:53:09.903Z,1.73
2023-01-18T08:55:38.344Z,1.63
2023-01-18T08:58:06.349Z,2.63
2023-01-18T09:00:34.564Z,3.05
2023-01-18T09:03:03.393Z,2.30
2023-01-18T09:05:31.701Z,9.43
2023-01-18T09:07:59.687Z,5.43
2023-01-18T09:10:29.065Z,133.23
2023-01-18T09:12:57.580Z,153.02
2023-01-18T09:15:27.037Z,122.00
2023-01-18T09:17:55.047Z,100.63
2023-01-18T09:20:23.046Z,64.05
2023-01-18T09:22:51.077Z,48.13
2023-01-18T09:25:19.048Z,40.97
2023-01-18T09:27:48.496Z,27.92
2023-01-18T09:30:17.188Z,29.30
2023-01-18T09:32:45.104Z,23.52
2023-01-18T09:35:17.997Z,20.27
2023-01-18T09:37:46.360Z,12.82
2023-01-18T09:40:20.374Z,14.70
2023-01-18T09:42:52.770Z,10.57
2023-01-18T09:45:33.391Z,14.30
2023-01-18T09:48:13.127Z,9.32
2023-01-18T09:50:43.991Z,10.10
2023-01-18T09:53:23.784Z,7.82
2023-01-18T09:55:57.401Z,7.35
2023-01-18T09:58:52.589Z,8.32
2023-01-18T10:01:24.383Z,6.95
2023-01-18T10:03:55.874Z,5.72
2023-01-18T10:06:28.041Z,5.03
2023-01-18T10:09:01.786Z,7.90
2023-01-18T10:11:36.591Z,6.78
2023-01-18T10:14:13.100Z,4.97
2023-01-18T10:16:41.090Z,12.60
2023-01-18T10:19:16.460Z,7.88
2023-01-18T10:21:53.788Z,5.40
2023-01-18T10:24:49.381Z,4.93
2023-01-18T10:27:40.279Z,5.85
2023-01-18T10:30:32.629Z,6.60
2023-01-18T10:33:04.584Z,5.03
2023-01-18T10:35:35.484Z,6.38
2023-01-18T10:38:07.173Z,9.48
2023-01-18T10:40:35.733Z,10.02
2023-01-18T10:43:04.638Z,10.65
2023-01-18T10:45:35.896Z,9.70
2023-01-18T10:48:24.319Z,5.70
2023-01-18T10:50:54.832Z,7.32
2023-01-18T10:53:27.929Z,3.42
2023-01-18T10:56:00.190Z,5.30
2023-01-18T10:58:30.556Z,5.68
2023-01-18T11:01:01.995Z,6.55
2023-01-18T11:03:35.761Z,4.32
2023-01-18T11:06:07.367Z,4.55
2023-01-18T11:08:36.745Z,4.40
2023-01-18T11:11:07.186Z,3.60
2023-01-18T11:13:42.799Z,5.82
2023-01-18T11:16:15.715Z,6.38
2023-01-18T11:18:58.569Z,5.25
2023-01-18T11:21:30.841Z,8.02
2023-01-18T11:23:59.437Z,4.57
2023-01-18T11:26:28.953Z,3.25
2023-01-18T11:29:01.123Z,2.42
2023-01-18T11:31:33.232Z,3.92
2023-01-18T11:34:03.837Z,2.47
2023-01-18T11:36:37.663Z,1.73
2023-01-18T11:39:29.318Z,2.08
2023-01-18T11:42:15.834Z,13.43
2023-01-18T11:44:48.431Z,2.33
2023-01-18T11:47:22.712Z,2.80
2023-01-18T11:49:58.944Z,1.90
2023-01-18T11:52:42.294Z,5.20
2023-01-18T11:55:23.480Z,4.60
2023-01-18T11:57:54.026Z,4.03
2023-01-18T12:00:28.162Z,3.35
2023-01-18T12:03:24.848Z,2.13
2023-01-18T12:05:56.081Z,1.27
2023-01-18T12:08:50.336Z,2.10
2023-01-18T12:11:32.112Z,3.38
2023-01-18T12:14:03.512Z,4.68
2023-01-18T12:16:49.217Z,2.03
2023-01-18T12:19:49.306Z,1.80
2023-01-18T12:22:49.816Z,2.25
2023-01-18T12:25:31.518Z,1.60
2023-01-18T12:28:08.130Z,1.85
2023-01-18T12:30:50.629Z,5.75
2023-01-18T12:33:42.704Z,3.03
2023-01-18T12:36:29.981Z,3.65
2023-01-18T12:38:58.397Z,2.05
2023-01-18T12:41:48.900Z,3.70
2023-01-18T12:44:33.192Z,4.45
2023-01-18T12:47:25.025Z,8.02
2023-01-18T12:49:59.438Z,5.68
2023-01-18T12:52:30.933Z,2.85
2023-01-18T12:55:04.719Z,2.90
2023-01-18T12:57:34.857Z,4.03
2023-01-18T13:00:09.351Z,19.90
2023-01-18T13:02:41.375Z,15.52
2023-01-18T13:05:19.508Z,13.65
2023-01-18T13:07:52.841Z,8.52
2023-01-18T13:10:24.808Z,8.95
2023-01-18T13:12:54.456Z,9.02
2023-01-18T13:15:31.693Z,6.03
2023-01-18T13:18:09.693Z,4.57
2023-01-18T13:20:50.177Z,5.18
2023-01-18T13:23:30.761Z,5.05
2023-01-18T13:26:11.823Z,3.15
2023-01-18T13:28:39.974Z,4.53
2023-01-18T13:31:08.056Z,4.50
2023-01-18T13:33:38.234Z,2.78
2023-01-18T13:36:09.100Z,4.43
2023-01-18T13:38:48.973Z,3.35
2023-01-18T13:41:24.865Z,3.20
2023-01-18T13:44:05.226Z,3.30
2023-01-18T13:46:36.692Z,2.38
2023-01-18T13:49:37.368Z,2.15
2023-01-18T13:52:30.479Z,5.18
2023-01-18T13:55:03.815Z,2.95
2023-01-18T13:57:34.349Z,4.50
2023-01-18T14:00:02.801Z,5.07
2023-01-18T14:02:42.342Z,1.98
2023-01-18T14:05:25.305Z,4.28
2023-01-18T14:07:57.017Z,4.38
2023-01-18T14:10:31.639Z,4.25
2023-01-18T14:13:01.396Z,2.08
2023-01-18T14:15:51.479Z,2.75
2023-01-18T14:18:23.959Z,5.45
2023-01-18T14:21:04.240Z,3.33
2023-01-18T14:24:12.599Z,4.45
2023-01-18T14:26:43.728Z,2.83
2023-01-18T14:29:17.532Z,2.75
2023-01-18T14:31:50.393Z,2.00
2023-01-18T14:34:38.185Z,1.63
2023-01-18T14:37:26.269Z,2.88
2023-01-18T14:40:06.201Z,1.13
2023-01-18T14:42:40.191Z,1.50
2023-01-18T14:45:18.710Z,2.63
2023-01-18T14:47:47.782Z,3.17
2023-01-18T14:50:20.065Z,2.67
2023-01-18T14:52:50.345Z,1.88
2023-01-18T14:55:26.939Z,3.50
2023-01-18T14:58:03.581Z,3.70
2023-01-18T15:00:31.760Z,1.95
2023-01-18T15:03:01.946Z,5.82
2023-01-18T15:05:31.157Z,2.85
2023-01-18T15:08:00.247Z,3.20
2023-01-18T15:10:28.504Z,4.00
2023-01-18T15:13:00.225Z,2.72
2023-01-18T15:15:32.107Z,3.38
2023-01-18T15:18:05.746Z,2.65
2023-01-18T15:20:33.963Z,2.55
2023-01-18T15:23:02.361Z,2.95
2023-01-18T15:25:33.718Z,3.92
2023-01-18T15:28:18.565Z,3.90
2023-01-18T15:30:52.819Z,2.60
2023-01-18T15:33:23.088Z,2.97
2023-01-18T15:35:55.251Z,1.58
2023-01-18T15:38:23.300Z,1.98
2023-01-18T15:40:59.528Z,2.45
2023-01-18T15:43:34.072Z,7.53
2023-01-18T15:46:02.685Z,11.07
2023-01-18T15:48:37.005Z,3.60
2023-01-18T15:51:11.025Z,11.73
2023-01-18T15:53:45.847Z,262.95
2023-01-18T15:56:18.566Z,288.65
2023-01-18T15:58:51.206Z,316.38
2023-01-18T16:01:22.195Z,351.45
2023-01-18T16:03:59.690Z,466.40
2023-01-18T16:06:33.581Z,409.58
2023-01-18T16:09:10.546Z,718.42
2023-01-18T16:11:46.533Z,552.92
2023-01-18T16:14:33.864Z,464.50
2023-01-18T16:17:07.305Z,403.13
2023-01-18T16:19:37.738Z,328.00
2023-01-18T16:22:07.798Z,264.00
2023-01-18T16:24:38.215Z,217.80
2023-01-18T16:27:11.547Z,169.40
2023-01-18T16:29:47.621Z,141.43
2023-01-18T16:32:20.995Z,110.45
2023-01-18T16:34:49.006Z,93.47
2023-01-18T16:37:18.115Z,83.47
2023-01-18T16:39:46.491Z,74.63
2023-01-18T16:42:14.833Z,63.55
2023-01-18T16:44:46.237Z,66.60
2023-01-18T16:47:16.166Z,47.10
2023-01-18T16:49:44.488Z,46.30
2023-01-18T16:52:13.491Z,43.47
2023-01-18T16:54:41.962Z,39.92
2023-01-18T16:57:23.533Z,37.25
2023-01-18T16:59:52.863Z,31.00
2023-01-18T17:02:20.861Z,29.58
2023-01-18T17:04:48.900Z,28.80
2023-01-18T17:07:17.411Z,25.65
2023-01-18T17:09:49.902Z,22.17
2023-01-18T17:12:18.202Z,22.65
2023-01-18T17:14:46.178Z,25.73
2023-01-18T17:17:15.583Z,22.77
2023-01-18T17:19:43.573Z,20.58
2023-01-18T17:22:11.626Z,18.00
2023-01-18T17:24:39.918Z,19.95
2023-01-18T17:27:10.057Z,16.95
2023-01-18T17:29:38.045Z,17.13
2023-01-18T17:32:07.927Z,17.95
2023-01-18T17:34:37.316Z,13.75
2023-01-18T17:37:05.225Z,14.05
2023-01-18T17:39:42.817Z,14.13
2023-01-18T17:42:29.858Z,14.48
2023-01-18T17:45:03.739Z,16.58
2023-01-18T17:47:32.860Z,13.43
2023-01-18T17:50:08.552Z,17.65
2023-01-18T17:52:37.090Z,14.82
2023-01-18T17:55:05.432Z,14.35
2023-01-18T17:57:33.654Z,14.13
2023-01-18T18:00:01.615Z,11.75
2023-01-18T18:02:36.054Z,12.85
2023-01-18T18:05:06.336Z,9.15
2023-01-18T18:07:34.584Z,10.63
2023-01-18T18:10:02.716Z,10.75
2023-01-18T18:12:31.974Z,9.98
2023-01-18T18:15:00.196Z,8.63
2023-01-18T18:17:30.444Z,8.05
2023-01-18T18:19:58.550Z,8.88
2023-01-18T18:22:28.329Z,9.80
2023-01-18T18:24:56.330Z,5.80
2023-01-18T18:27:26.657Z,8.23
2023-01-18T18:29:59.139Z,6.47
2023-01-18T18:32:27.123Z,6.47
2023-01-18T18:34:55.149Z,5.50
2023-01-18T18:37:23.526Z,7.05
2023-01-18T18:39:52.904Z,4.50
2023-01-18T18:42:20.883Z,5.43
2023-01-18T18:44:48.949Z,5.07
2023-01-18T18:47:16.916Z,4.28
2023-01-18T18:49:45.011Z,5.13
2023-01-18T18:52:13.123Z,6.47
2023-01-18T18:54:41.120Z,5.13
2023-01-18T18:57:10.417Z,3.70
2023-01-18T18:59:38.355Z,4.88
2023-01-18T19:02:06.387Z,5.18
2023-01-18T19:04:34.720Z,3.17
2023-01-18T19:07:02.708Z,6.10
2023-01-18T19:09:30.786Z,6.30
2023-01-18T19:11:59.029Z,3.58
2023-01-18T19:14:28.540Z,4.03
2023-01-18T19:16:56.428Z,3.67
2023-01-18T19:19:26.024Z,2.97
2023-01-18T19:21:54.287Z,3.25
2023-01-18T19:24:22.215Z,3.42
2023-01-18T19:26:50.221Z,3.22
2023-01-18T19:29:18.495Z,3.28
2023-01-18T19:31:47.953Z,4.07
2023-01-18T19:34:16.139Z,3.13
2023-01-18T19:36:44.057Z,3.40
2023-01-18T19:39:21.879Z,4.55
2023-01-18T19:41:51.188Z,3.05
2023-01-18T19:44:19.266Z,4.13
2023-01-18T19:46:48.582Z,4.57
2023-01-18T19:49:20.008Z,3.35
2023-01-18T19:51:48.120Z,3.92
2023-01-18T19:54:16.171Z,4.25
2023-01-18T19:56:45.183Z,2.05
2023-01-18T19:59:14.533Z,4.18
2023-01-18T20:01:42.818Z,2.58
2023-01-18T20:04:13.246Z,3.38
2023-01-18T20:06:43.304Z,2.97
2023-01-18T20:09:19.453Z,3.10
2023-01-18T20:11:48.221Z,3.60
2023-01-18T20:14:16.253Z,3.97
2023-01-18T20:16:46.021Z,3.15
2023-01-18T20:19:17.411Z,3.50
2023-01-18T20:21:45.479Z,3.20
2023-01-18T20:24:13.429Z,2.03
2023-01-18T20:26:42.210Z,2.13
2023-01-18T20:29:11.134Z,3.00
2023-01-18T20:31:41.102Z,2.90
2023-01-18T20:34:11.053Z,4.10
2023-01-18T20:36:40.369Z,2.15
2023-01-18T20:39:08.392Z,4.47
2023-01-18T20:41:36.380Z,3.42
2023-01-18T20:44:04.696Z,4.18
2023-01-18T20:46:32.663Z,2.83
2023-01-18T20:49:02.996Z,3.70
2023-01-18T20:51:31.199Z,2.60
2023-01-18T20:54:00.826Z,2.80
2023-01-18T20:56:30.589Z,3.03
2023-01-18T20:58:59.168Z,4.20
2023-01-18T21:01:32.112Z,3.25
2023-01-18T21:04:01.634Z,2.92
2023-01-18T21:06:30.466Z,4.50
2023-01-18T21:09:01.048Z,3.08
2023-01-18T21:11:29.361Z,2.90
2023-01-18T21:13:59.974Z,3.88
2023-01-18T21:16:28.646Z,1.77
2023-01-18T21:18:58.979Z,3.55
2023-01-18T21:21:29.394Z,2.95
2023-01-18T21:23:57.537Z,4.30
2023-01-18T21:26:27.401Z,9.15
2023-01-18T21:28:56.072Z,3.20
2023-01-18T21:31:24.317Z,6.22
2023-01-18T21:33:52.887Z,4.60
2023-01-18T21:36:22.875Z,5.28
2023-01-18T21:38:51.036Z,4.90
2023-01-18T21:41:36.898Z,5.20
2023-01-18T21:44:24.033Z,5.60
2023-01-18T21:46:53.435Z,4.00
2023-01-18T21:50:10.956Z,3.08
2023-01-18T21:52:44.952Z,3.28
2023-01-18T21:55:13.669Z,4.20
2023-01-18T21:57:41.643Z,3.55
2023-01-18T22:00:12.833Z,4.22
2023-01-18T22:02:41.026Z,3.08
2023-01-18T22:05:09.901Z,2.90
2023-01-18T22:07:37.907Z,2.72
2023-01-18T22:10:07.315Z,2.58
2023-01-18T22:12:38.938Z,2.95
2023-01-18T22:15:07.941Z,2.45
2023-01-18T22:17:37.311Z,2.03
2023-01-18T22:20:06.048Z,2.83
2023-01-18T22:22:34.145Z,4.10
2023-01-18T22:25:02.376Z,4.03
2023-01-18T22:27:30.650Z,2.10
2023-01-18T22:29:58.660Z,4.45
2023-01-18T22:32:26.785Z,2.00
2023-01-18T22:34:56.070Z,3.22
2023-01-18T22:37:25.945Z,5.00
2023-01-18T22:39:53.885Z,1.48
2023-01-18T22:42:21.892Z,1.65
2023-01-18T22:44:49.908Z,2.10
2023-01-18T22:47:17.888Z,1.80
2023-01-18T22:49:45.855Z,4.03
2023-01-18T22:52:15.157Z,4.20
2023-01-18T22:54:43.128Z,1.27
2023-01-18T22:57:11.262Z,2.92
2023-01-18T22:59:39.207Z,2.40
2023-01-18T23:02:07.131Z,3.97
2023-01-18T23:04:35.198Z,2.83
2023-01-18T23:07:03.193Z,1.60
2023-01-18T23:09:32.578Z,1.50
2023-01-18T23:12:00.567Z,1.63
2023-01-18T23:14:45.904Z,3.80
2023-01-18T23:17:32.181Z,2.15
2023-01-18T23:20:00.220Z,2.97
2023-01-18T23:22:28.239Z,1.95
2023-01-18T23:24:57.558Z,1.35
2023-01-18T23:27:25.935Z,2.72
2023-01-18T23:29:57.176Z,1.65
2023-01-18T23:32:27.953Z,2.78
2023-01-18T23:34:56.206Z,4.63
2023-01-18T23:37:24.912Z,1.75
2023-01-18T23:40:10.580Z,2.90
2023-01-18T23:42:57.478Z,2.78
2023-01-18T23:45:43.299Z,3.88
2023-01-18T23:48:32.055Z,3.83
2023-01-18T23:51:17.790Z,3.95
2023-01-18T23:54:03.528Z,1.98
2023-01-18T23:56:31.690Z,2.92
2023-01-18T23:59:01.168Z,2.38
